Terminal Aerodrome Forecast
Issued by NWS

Home | Current Version | Previous Version | Text Only | Print | Product List | Glossary Off
Versions: 1 2 3 4 5 6 7 8 9 10 11 12 13 14 15 16 17 18 19

601
FTUS43 KMPX 231745
TAFRWF
TAF
KRWF 231745Z 2318/2418 29010KT 6SM BR BKN010
     FM232200 29010KT P6SM SCT012
     FM240000 30004KT P6SM SKC
     FM240300 VRB03KT 4SM BR SKC
     FM240500 VRB03KT 1/4SM FZFG VV002
     FM241500 12007KT 3SM BR OVC007=

USA.gov is the U.S. government's official web portal to all federal, state and local government web resources and services.